sensor_id;sensor_type;location;lat;lon;timestamp;pressure;altitude;pressure_sealevel;temperature;humidity
51687;BME280;37774;52.192;4.584;2023-06-14T00:01:33;101637.13;;;16.85;100.00
51687;BME280;37774;52.192;4.584;2023-06-14T00:04:18;101575.84;;;16.47;100.00
51687;BME280;37774;52.192;4.584;2023-06-14T00:07:05;101624.03;;;16.84;100.00
51687;BME280;37774;52.192;4.584;2023-06-14T00:09:52;101620.69;;;16.77;100.00
51687;BME280;37774;52.192;4.584;2023-06-14T00:12:38;101513.31;;;16.25;100.00
51687;BME280;37774;52.192;4.584;2023-06-14T00:15:24;101476.09;;;16.08;100.00
51687;BME280;37774;52.192;4.584;2023-06-14T00:18:10;101611.72;;;16.87;100.00
51687;BME280;37774;52.192;4.584;2023-06-14T00:20:56;101565.97;;;16.58;100.00
51687;BME280;37774;52.192;4.584;2023-06-14T00:23:41;101615.88;;;16.99;100.00
51687;BME280;37774;52.192;4.584;2023-06-14T00:26:27;101586.66;;;16.72;100.00
51687;BME280;37774;52.192;4.584;2023-06-14T00:29:12;101521.91;;;16.32;100.00
51687;BME280;37774;52.192;4.584;2023-06-14T00:31:59;101647.41;;;16.98;100.00
51687;BME280;37774;52.192;4.584;2023-06-14T00:34:45;101620.06;;;16.65;100.00
51687;BME280;37774;52.192;4.584;2023-06-14T00:37:30;101659.94;;;16.82;100.00
51687;BME280;37774;52.192;4.584;2023-06-14T00:40:16;101669.53;;;16.84;100.00
51687;BME280;37774;52.192;4.584;2023-06-14T00:43:01;101663.78;;;16.67;100.00
51687;BME280;37774;52.192;4.584;2023-06-14T00:45:47;101666.59;;;16.56;100.00
51687;BME280;37774;52.192;4.584;2023-06-14T00:48:36;101713.41;;;16.77;100.00
51687;BME280;37774;52.192;4.584;2023-06-14T00:51:22;101737.16;;;16.71;100.00
51687;BME280;37774;52.192;4.584;2023-06-14T00:54:07;101710.53;;;16.43;100.00
51687;BME280;37774;52.192;4.584;2023-06-14T00:56:53;101708.91;;;16.37;100.00
51687;BME280;37774;52.192;4.584;2023-06-14T00:59:42;101739.38;;;16.46;100.00
51687;BME280;37774;52.192;4.584;2023-06-14T01:02:28;101720.53;;;16.22;100.00
51687;BME280;37774;52.192;4.584;2023-06-14T01:05:15;101665.09;;;15.92;100.00
51687;BME280;37774;52.192;4.584;2023-06-14T01:08:11;101776.22;;;16.38;100.00
51687;BME280;37774;52.192;4.584;2023-06-14T01:11:05;101746.84;;;16.16;100.00
51687;BME280;37774;52.192;4.584;2023-06-14T01:13:53;101772.91;;;16.27;100.00
51687;BME280;37774;52.192;4.584;2023-06-14T01:16:39;101762.63;;;16.13;100.00
51687;BME280;37774;52.192;4.584;2023-06-14T01:19:26;101397.72;;;13.76;100.00
51687;BME280;37774;52.192;4.584;2023-06-14T01:22:14;101750.47;;;16.09;100.00
51687;BME280;37774;52.192;4.584;2023-06-14T01:25:01;101653.56;;;15.47;100.00
51687;BME280;37774;52.192;4.584;2023-06-14T01:27:48;101755.03;;;15.97;100.00
51687;BME280;37774;52.192;4.584;2023-06-14T01:30:34;101750.72;;;15.95;100.00
51687;BME280;37774;52.192;4.584;2023-06-14T01:33:22;101755.13;;;15.89;100.00
51687;BME280;37774;52.192;4.584;2023-06-14T01:36:09;101761.25;;;15.90;100.00
51687;BME280;37774;52.192;4.584;2023-06-14T01:38:55;101750.72;;;15.93;100.00
51687;BME280;37774;52.192;4.584;2023-06-14T01:41:43;101762.97;;;15.91;100.00
51687;BME280;37774;52.192;4.584;2023-06-14T01:44:31;101723.25;;;15.56;100.00
51687;BME280;37774;52.192;4.584;2023-06-14T01:47:17;101673.19;;;15.15;100.00
51687;BME280;37774;52.192;4.584;2023-06-14T01:50:03;101759.88;;;15.61;100.00
51687;BME280;37774;52.192;4.584;2023-06-14T01:52:49;101766.78;;;15.67;100.00
51687;BME280;37774;52.192;4.584;2023-06-14T01:55:34;101769.31;;;15.74;100.00
51687;BME280;37774;52.192;4.584;2023-06-14T01:58:22;101725.31;;;15.36;100.00
51687;BME280;37774;52.192;4.584;2023-06-14T02:01:08;101764.22;;;15.63;100.00
51687;BME280;37774;52.192;4.584;2023-06-14T02:03:55;101774.59;;;15.71;100.00
51687;BME280;37774;52.192;4.584;2023-06-14T02:06:41;101766.78;;;15.68;100.00
51687;BME280;37774;52.192;4.584;2023-06-14T02:09:26;101764.16;;;15.67;100.00
51687;BME280;37774;52.192;4.584;2023-06-14T02:12:12;101774.69;;;15.65;100.00
51687;BME280;37774;52.192;4.584;2023-06-14T02:14:59;101719.94;;;15.46;100.00
51687;BME280;37774;52.192;4.584;2023-06-14T02:17:44;101761.63;;;15.62;100.00
51687;BME280;37774;52.192;4.584;2023-06-14T02:20:31;101765.88;;;15.68;100.00
51687;BME280;37774;52.192;4.584;2023-06-14T02:23:16;101771.22;;;15.63;100.00
51687;BME280;37774;52.192;4.584;2023-06-14T02:26:01;101767.88;;;15.50;100.00
51687;BME280;37774;52.192;4.584;2023-06-14T02:28:47;101764.63;;;15.31;100.00
51687;BME280;37774;52.192;4.584;2023-06-14T02:31:35;101763.81;;;15.27;100.00
51687;BME280;37774;52.192;4.584;2023-06-14T02:34:20;101766.44;;;15.26;100.00
51687;BME280;37774;52.192;4.584;2023-06-14T02:37:05;101738.09;;;14.90;100.00
51687;BME280;37774;52.192;4.584;2023-06-14T02:39:51;101776.34;;;15.00;100.00
51687;BME280;37774;52.192;4.584;2023-06-14T02:42:36;101735.75;;;14.59;100.00
51687;BME280;37774;52.192;4.584;2023-06-14T02:45:23;101773.97;;;14.77;100.00
51687;BME280;37774;52.192;4.584;2023-06-14T02:48:10;101778.31;;;14.77;100.00
51687;BME280;37774;52.192;4.584;2023-06-14T02:50:55;101692.53;;;14.19;100.00
51687;BME280;37774;52.192;4.584;2023-06-14T02:53:41;101779.19;;;14.75;100.00
51687;BME280;37774;52.192;4.584;2023-06-14T02:56:27;101777.50;;;14.73;100.00
51687;BME280;37774;52.192;4.584;2023-06-14T02:59:12;101780.13;;;14.73;100.00
51687;BME280;37774;52.192;4.584;2023-06-14T03:01:59;101722.19;;;14.16;100.00
51687;BME280;37774;52.192;4.584;2023-06-14T03:04:46;101788.13;;;14.51;100.00
51687;BME280;37774;52.192;4.584;2023-06-14T03:07:31;101788.28;;;14.34;100.00
51687;BME280;37774;52.192;4.584;2023-06-14T03:10:16;101795.25;;;14.32;100.00
51687;BME280;37774;52.192;4.584;2023-06-14T03:13:02;101774.38;;;14.29;100.00
51687;BME280;37774;52.192;4.584;2023-06-14T03:15:47;101796.13;;;14.34;100.00
51687;BME280;37774;52.192;4.584;2023-06-14T03:18:34;101763.19;;;14.07;100.00
51687;BME280;37774;52.192;4.584;2023-06-14T03:21:21;101804.94;;;14.21;100.00
51687;BME280;37774;52.192;4.584;2023-06-14T03:24:07;101810.97;;;14.27;100.00
51687;BME280;37774;52.192;4.584;2023-06-14T03:26:53;101808.44;;;14.16;100.00
51687;BME280;37774;52.192;4.584;2023-06-14T03:29:38;101810.22;;;14.14;100.00
51687;BME280;37774;52.192;4.584;2023-06-14T03:32:24;101696.59;;;13.43;100.00
51687;BME280;37774;52.192;4.584;2023-06-14T03:35:09;101820.69;;;14.07;100.00
51687;BME280;37774;52.192;4.584;2023-06-14T03:38:02;101809.38;;;14.05;100.00
51687;BME280;37774;52.192;4.584;2023-06-14T03:40:47;101821.56;;;14.06;100.00
51687;BME280;37774;52.192;4.584;2023-06-14T03:43:33;101785.16;;;13.76;100.00
51687;BME280;37774;52.192;4.584;2023-06-14T03:46:18;101827.69;;;14.01;100.00
51687;BME280;37774;52.192;4.584;2023-06-14T03:49:04;101777.38;;;13.71;100.00
51687;BME280;37774;52.192;4.584;2023-06-14T03:51:49;101831.13;;;14.10;100.00
51687;BME280;37774;52.192;4.584;2023-06-14T03:54:36;101682.75;;;13.13;100.00
51687;BME280;37774;52.192;4.584;2023-06-14T03:57:23;101832.91;;;14.09;100.00
51687;BME280;37774;52.192;4.584;2023-06-14T04:00:10;101874.78;;;13.95;100.00
51687;BME280;37774;52.192;4.584;2023-06-14T04:02:56;101840.72;;;14.11;100.00
51687;BME280;37774;52.192;4.584;2023-06-14T04:05:42;101825.97;;;14.02;100.00
51687;BME280;37774;52.192;4.584;2023-06-14T04:08:28;101796.50;;;13.77;100.00
51687;BME280;37774;52.192;4.584;2023-06-14T04:11:15;101841.56;;;14.13;100.00
51687;BME280;37774;52.192;4.584;2023-06-14T04:14:01;101848.50;;;14.22;100.00
51687;BME280;37774;52.192;4.584;2023-06-14T04:16:48;101736.50;;;13.59;100.00
51687;BME280;37774;52.192;4.584;2023-06-14T04:19:34;101718.25;;;13.56;100.00
51687;BME280;37774;52.192;4.584;2023-06-14T04:22:19;101847.50;;;14.38;100.00
51687;BME280;37774;52.192;4.584;2023-06-14T04:25:05;101844.03;;;14.38;100.00
51687;BME280;37774;52.192;4.584;2023-06-14T04:27:52;101839.56;;;14.52;100.00
51687;BME280;37774;52.192;4.584;2023-06-14T04:30:39;101834.22;;;14.71;100.00
51687;BME280;37774;52.192;4.584;2023-06-14T04:33:24;101833.13;;;14.95;100.00
51687;BME280;37774;52.192;4.584;2023-06-14T04:36:10;101798.28;;;14.88;100.00
51687;BME280;37774;52.192;4.584;2023-06-14T04:38:57;101773.88;;;14.86;100.00
51687;BME280;37774;52.192;4.584;2023-06-14T04:41:43;101795.28;;;15.23;100.00
51687;BME280;37774;52.192;4.584;2023-06-14T04:44:31;101836.66;;;15.66;100.00
51687;BME280;37774;52.192;4.584;2023-06-14T04:47:17;101838.31;;;15.72;100.00
51687;BME280;37774;52.192;4.584;2023-06-14T04:50:03;101833.81;;;15.83;100.00
51687;BME280;37774;52.192;4.584;2023-06-14T04:52:48;101565.25;;;14.24;100.00
51687;BME280;37774;52.192;4.584;2023-06-14T04:55:35;101835.34;;;16.01;100.00
51687;BME280;37774;52.192;4.584;2023-06-14T04:58:21;101836.06;;;16.13;100.00
51687;BME280;37774;52.192;4.584;2023-06-14T05:01:08;101828.09;;;16.20;100.00
51687;BME280;37774;52.192;4.584;2023-06-14T05:03:53;101825.97;;;16.43;100.00
51687;BME280;37774;52.192;4.584;2023-06-14T05:06:38;101832.94;;;16.45;100.00
51687;BME280;37774;52.192;4.584;2023-06-14T05:09:24;101803.19;;;16.46;100.00
51687;BME280;37774;52.192;4.584;2023-06-14T05:12:10;101764.91;;;16.34;100.00
51687;BME280;37774;52.192;4.584;2023-06-14T05:14:55;101832.19;;;16.89;100.00
51687;BME280;37774;52.192;4.584;2023-06-14T05:17:45;101812.78;;;16.96;100.00
51687;BME280;37774;52.192;4.584;2023-06-14T05:20:34;101822.94;;;17.18;100.00
51687;BME280;37774;52.192;4.584;2023-06-14T05:23:21;101828.53;;;17.45;100.00
51687;BME280;37774;52.192;4.584;2023-06-14T05:26:06;101831.78;;;17.56;100.00
51687;BME280;37774;52.192;4.584;2023-06-14T05:28:52;101827.19;;;17.67;100.00
51687;BME280;37774;52.192;4.584;2023-06-14T05:31:38;101822.72;;;17.71;100.00
51687;BME280;37774;52.192;4.584;2023-06-14T05:34:24;101815.88;;;18.05;100.00
51687;BME280;37774;52.192;4.584;2023-06-14T05:37:10;101820.91;;;18.14;100.00
51687;BME280;37774;52.192;4.584;2023-06-14T05:39:58;101818.97;;;18.22;100.00
51687;BME280;37774;52.192;4.584;2023-06-14T05:42:43;101790.13;;;18.18;100.00
51687;BME280;37774;52.192;4.584;2023-06-14T05:45:29;101809.50;;;18.50;100.00
51687;BME280;37774;52.192;4.584;2023-06-14T05:48:14;101803.97;;;18.61;100.00
51687;BME280;37774;52.192;4.584;2023-06-14T05:51:01;101813.53;;;18.98;100.00
51687;BME280;37774;52.192;4.584;2023-06-14T05:53:47;101765.59;;;18.85;100.00
51687;BME280;37774;52.192;4.584;2023-06-14T05:56:33;101809.81;;;19.07;100.00
51687;BME280;37774;52.192;4.584;2023-06-14T05:59:18;101790.66;;;19.00;100.00
51687;BME280;37774;52.192;4.584;2023-06-14T06:02:04;101824.53;;;19.14;100.00
51687;BME280;37774;52.192;4.584;2023-06-14T06:04:50;101818.75;;;19.33;100.00
51687;BME280;37774;52.192;4.584;2023-06-14T06:07:37;101807.75;;;19.48;100.00
51687;BME280;37774;52.192;4.584;2023-06-14T06:10:24;101807.97;;;19.70;100.00
51687;BME280;37774;52.192;4.584;2023-06-14T06:13:09;101804.03;;;19.84;100.00
51687;BME280;37774;52.192;4.584;2023-06-14T06:15:55;101810.47;;;20.04;100.00
51687;BME280;37774;52.192;4.584;2023-06-14T06:18:40;101800.00;;;20.02;100.00
51687;BME280;37774;52.192;4.584;2023-06-14T06:21:26;101724.47;;;19.71;100.00
51687;BME280;37774;52.192;4.584;2023-06-14T06:24:13;101806.69;;;19.84;100.00
51687;BME280;37774;52.192;4.584;2023-06-14T06:26:58;101779.75;;;19.74;100.00
51687;BME280;37774;52.192;4.584;2023-06-14T06:29:44;101811.75;;;19.92;100.00
51687;BME280;37774;52.192;4.584;2023-06-14T06:32:29;101812.13;;;20.08;100.00
51687;BME280;37774;52.192;4.584;2023-06-14T06:35:15;101804.16;;;20.36;100.00
51687;BME280;37774;52.192;4.584;2023-06-14T06:38:00;101815.63;;;20.35;100.00
51687;BME280;37774;52.192;4.584;2023-06-14T06:40:47;101820.19;;;20.30;100.00
51687;BME280;37774;52.192;4.584;2023-06-14T06:43:33;101819.06;;;20.64;100.00
51687;BME280;37774;52.192;4.584;2023-06-14T06:46:18;101815.38;;;20.43;100.00
51687;BME280;37774;52.192;4.584;2023-06-14T06:49:03;101815.03;;;20.81;100.00
51687;BME280;37774;52.192;4.584;2023-06-14T06:52:03;101815.06;;;21.05;100.00
51687;BME280;37774;52.192;4.584;2023-06-14T06:54:48;101823.56;;;21.13;100.00
51687;BME280;37774;52.192;4.584;2023-06-14T06:57:40;101787.28;;;20.93;100.00
51687;BME280;37774;52.192;4.584;2023-06-14T07:00:25;101828.16;;;21.31;100.00
51687;BME280;37774;52.192;4.584;2023-06-14T07:03:11;101825.97;;;21.43;100.00
51687;BME280;37774;52.192;4.584;2023-06-14T07:05:56;101821.91;;;21.34;100.00
51687;BME280;37774;52.192;4.584;2023-06-14T07:08:42;101835.75;;;21.41;100.00
51687;BME280;37774;52.192;4.584;2023-06-14T07:11:27;101809.06;;;21.47;100.00
51687;BME280;37774;52.192;4.584;2023-06-14T07:14:14;101795.81;;;21.72;100.00
51687;BME280;37774;52.192;4.584;2023-06-14T07:16:59;101836.56;;;21.91;100.00
51687;BME280;37774;52.192;4.584;2023-06-14T07:19:45;101830.44;;;22.33;100.00
51687;BME280;37774;52.192;4.584;2023-06-14T07:22:30;101828.56;;;22.35;100.00
51687;BME280;37774;52.192;4.584;2023-06-14T07:25:16;101826.19;;;22.29;100.00
51687;BME280;37774;52.192;4.584;2023-06-14T07:28:04;101808.63;;;22.26;100.00
51687;BME280;37774;52.192;4.584;2023-06-14T07:30:50;101812.91;;;22.30;100.00
51687;BME280;37774;52.192;4.584;2023-06-14T07:33:36;101767.09;;;22.90;100.00
51687;BME280;37774;52.192;4.584;2023-06-14T07:36:21;101819.31;;;23.28;100.00
51687;BME280;37774;52.192;4.584;2023-06-14T07:39:07;101756.19;;;22.57;100.00
51687;BME280;37774;52.192;4.584;2023-06-14T07:41:52;101815.88;;;23.64;100.00
51687;BME280;37774;52.192;4.584;2023-06-14T07:44:38;101748.38;;;23.33;100.00
51687;BME280;37774;52.192;4.584;2023-06-14T07:47:25;101816.94;;;23.60;100.00
51687;BME280;37774;52.192;4.584;2023-06-14T07:50:10;101810.81;;;23.20;100.00
51687;BME280;37774;52.192;4.584;2023-06-14T07:52:56;101818.00;;;23.18;100.00
51687;BME280;37774;52.192;4.584;2023-06-14T07:55:42;101828.34;;;23.62;100.00
51687;BME280;37774;52.192;4.584;2023-06-14T07:58:27;101815.72;;;23.87;100.00
51687;BME280;37774;52.192;4.584;2023-06-14T08:01:13;101803.31;;;23.87;100.00
51687;BME280;37774;52.192;4.584;2023-06-14T08:04:00;101778.25;;;24.30;100.00
51687;BME280;37774;52.192;4.584;2023-06-14T08:06:45;101814.84;;;24.05;100.00
51687;BME280;37774;52.192;4.584;2023-06-14T08:09:31;101790.00;;;23.51;100.00
51687;BME280;37774;52.192;4.584;2023-06-14T08:12:17;101813.84;;;24.08;100.00
51687;BME280;37774;52.192;4.584;2023-06-14T08:15:03;101817.28;;;24.63;100.00
51687;BME280;37774;52.192;4.584;2023-06-14T08:17:48;101807.44;;;24.12;100.00
51687;BME280;37774;52.192;4.584;2023-06-14T08:20:35;101807.09;;;25.06;100.00
51687;BME280;37774;52.192;4.584;2023-06-14T08:23:21;101806.75;;;25.13;100.00
51687;BME280;37774;52.192;4.584;2023-06-14T08:26:07;101741.06;;;25.15;100.00
51687;BME280;37774;52.192;4.584;2023-06-14T08:28:52;101805.53;;;25.52;100.00
51687;BME280;37774;52.192;4.584;2023-06-14T08:31:38;101654.97;;;24.68;100.00
51687;BME280;37774;52.192;4.584;2023-06-14T08:34:24;101752.13;;;25.55;100.00
51687;BME280;37774;52.192;4.584;2023-06-14T08:37:11;101756.19;;;26.09;100.00
51687;BME280;37774;52.192;4.584;2023-06-14T08:39:56;101766.84;;;25.93;100.00
51687;BME280;37774;52.192;4.584;2023-06-14T08:42:42;101779.47;;;26.36;100.00
51687;BME280;37774;52.192;4.584;2023-06-14T08:45:28;101787.88;;;26.44;100.00
51687;BME280;37774;52.192;4.584;2023-06-14T08:48:13;101773.91;;;26.55;100.00
51687;BME280;37774;52.192;4.584;2023-06-14T08:51:01;101740.81;;;26.88;100.00
51687;BME280;37774;52.192;4.584;2023-06-14T08:53:52;101738.88;;;26.61;100.00
51687;BME280;37774;52.192;4.584;2023-06-14T08:56:38;101711.16;;;26.78;100.00
51687;BME280;37774;52.192;4.584;2023-06-14T08:59:26;101763.16;;;27.15;100.00
51687;BME280;37774;52.192;4.584;2023-06-14T09:02:12;101773.25;;;27.24;100.00
51687;BME280;37774;52.192;4.584;2023-06-14T09:04:58;101757.06;;;27.82;100.00
51687;BME280;37774;52.192;4.584;2023-06-14T09:07:45;101765.34;;;27.64;100.00
51687;BME280;37774;52.192;4.584;2023-06-14T09:10:34;101747.56;;;27.78;100.00
51687;BME280;37774;52.192;4.584;2023-06-14T09:13:21;101744.03;;;27.77;100.00
51687;BME280;37774;52.192;4.584;2023-06-14T09:16:07;101759.03;;;28.06;100.00
51687;BME280;37774;52.192;4.584;2023-06-14T09:18:53;101749.31;;;28.45;100.00
51687;BME280;37774;52.192;4.584;2023-06-14T09:21:40;101756.84;;;27.72;100.00
51687;BME280;37774;52.192;4.584;2023-06-14T09:24:25;101737.91;;;27.62;100.00
51687;BME280;37774;52.192;4.584;2023-06-14T09:27:15;101754.97;;;28.40;100.00
51687;BME280;37774;52.192;4.584;2023-06-14T09:30:02;101739.78;;;28.28;100.00
51687;BME280;37774;52.192;4.584;2023-06-14T09:32:48;101729.31;;;28.38;100.00
51687;BME280;37774;52.192;4.584;2023-06-14T09:35:34;101727.41;;;28.79;100.00
51687;BME280;37774;52.192;4.584;2023-06-14T09:38:20;101673.59;;;28.45;100.00
51687;BME280;37774;52.192;4.584;2023-06-14T09:41:05;101745.06;;;29.56;100.00
51687;BME280;37774;52.192;4.584;2023-06-14T09:43:52;101658.13;;;28.37;100.00
51687;BME280;37774;52.192;4.584;2023-06-14T09:46:44;101729.97;;;29.55;100.00
51687;BME280;37774;52.192;4.584;2023-06-14T09:49:30;101721.78;;;30.16;100.00
51687;BME280;37774;52.192;4.584;2023-06-14T09:52:19;101742.06;;;29.10;100.00
51687;BME280;37774;52.192;4.584;2023-06-14T09:55:11;101743.44;;;29.78;100.00
51687;BME280;37774;52.192;4.584;2023-06-14T09:57:57;101729.00;;;29.19;98.81
51687;BME280;37774;52.192;4.584;2023-06-14T10:00:47;101730.44;;;29.84;100.00
51687;BME280;37774;52.192;4.584;2023-06-14T10:03:36;101730.91;;;29.78;97.26
51687;BME280;37774;52.192;4.584;2023-06-14T10:06:25;101712.78;;;29.57;93.37
51687;BME280;37774;52.192;4.584;2023-06-14T10:09:11;101744.38;;;28.65;100.00
51687;BME280;37774;52.192;4.584;2023-06-14T10:11:58;101716.75;;;30.00;95.40
51687;BME280;37774;52.192;4.584;2023-06-14T10:14:44;101716.44;;;28.95;91.50
51687;BME280;37774;52.192;4.584;2023-06-14T10:17:43;101703.00;;;30.05;87.98
51687;BME280;37774;52.192;4.584;2023-06-14T10:20:35;101712.19;;;28.79;87.66
51687;BME280;37774;52.192;4.584;2023-06-14T10:23:23;101714.91;;;29.65;89.94
51687;BME280;37774;52.192;4.584;2023-06-14T10:26:19;101685.88;;;29.83;87.02
51687;BME280;37774;52.192;4.584;2023-06-14T10:29:08;101709.47;;;29.42;88.32
51687;BME280;37774;52.192;4.584;2023-06-14T10:31:57;101632.47;;;28.84;89.40
51687;BME280;37774;52.192;4.584;2023-06-14T10:34:45;101714.78;;;29.67;86.65
51687;BME280;37774;52.192;4.584;2023-06-14T10:37:30;101724.69;;;29.78;89.11
51687;BME280;37774;52.192;4.584;2023-06-14T10:40:30;101649.66;;;29.66;90.91
51687;BME280;37774;52.192;4.584;2023-06-14T10:43:22;101657.38;;;29.82;85.32
51687;BME280;37774;52.192;4.584;2023-06-14T10:46:16;101695.50;;;30.67;81.26
51687;BME280;37774;52.192;4.584;2023-06-14T10:49:02;101704.22;;;31.26;87.61
51687;BME280;37774;52.192;4.584;2023-06-14T10:51:51;101725.72;;;30.46;91.12
51687;BME280;37774;52.192;4.584;2023-06-14T10:54:36;101726.69;;;30.57;88.90
51687;BME280;37774;52.192;4.584;2023-06-14T10:57:22;101655.13;;;30.12;85.33
51687;BME280;37774;52.192;4.584;2023-06-14T11:00:09;101717.31;;;30.51;81.28
51687;BME280;37774;52.192;4.584;2023-06-14T11:03:36;101718.03;;;30.30;83.29
51687;BME280;37774;52.192;4.584;2023-06-14T11:06:43;101706.84;;;30.25;84.12
51687;BME280;37774;52.192;4.584;2023-06-14T11:09:54;101681.34;;;30.20;85.66
51687;BME280;37774;52.192;4.584;2023-06-14T11:12:48;101681.13;;;29.87;87.05
51687;BME280;37774;52.192;4.584;2023-06-14T11:15:34;101713.41;;;29.85;84.22
51687;BME280;37774;52.192;4.584;2023-06-14T11:18:21;101708.81;;;29.63;82.04
51687;BME280;37774;52.192;4.584;2023-06-14T11:21:08;101693.72;;;29.62;78.56
51687;BME280;37774;52.192;4.584;2023-06-14T11:23:54;101640.75;;;28.68;80.91
51687;BME280;37774;52.192;4.584;2023-06-14T11:26:41;101616.97;;;29.14;83.57
51687;BME280;37774;52.192;4.584;2023-06-14T11:29:29;101714.97;;;29.28;82.62
51687;BME280;37774;52.192;4.584;2023-06-14T11:32:14;101697.03;;;30.01;83.22
51687;BME280;37774;52.192;4.584;2023-06-14T11:35:00;101707.00;;;29.02;81.93
51687;BME280;37774;52.192;4.584;2023-06-14T11:37:45;101660.28;;;30.26;81.80
51687;BME280;37774;52.192;4.584;2023-06-14T11:40:31;101683.16;;;30.08;79.81
51687;BME280;37774;52.192;4.584;2023-06-14T11:43:18;101691.75;;;30.70;83.13
51687;BME280;37774;52.192;4.584;2023-06-14T11:46:04;101636.75;;;30.30;84.07
51687;BME280;37774;52.192;4.584;2023-06-14T11:48:49;101607.72;;;30.58;83.25
51687;BME280;37774;52.192;4.584;2023-06-14T11:51:37;101679.72;;;31.73;82.02
51687;BME280;37774;52.192;4.584;2023-06-14T11:54:22;101666.00;;;30.90;77.67
51687;BME280;37774;52.192;4.584;2023-06-14T11:57:08;101672.44;;;30.08;80.15
51687;BME280;37774;52.192;4.584;2023-06-14T11:59:55;101685.38;;;30.37;80.51
51687;BME280;37774;52.192;4.584;2023-06-14T12:02:41;101697.28;;;30.10;80.00
51687;BME280;37774;52.192;4.584;2023-06-14T12:05:27;101691.69;;;30.13;79.75
51687;BME280;37774;52.192;4.584;2023-06-14T12:08:13;101689.00;;;31.04;80.08
51687;BME280;37774;52.192;4.584;2023-06-14T12:11:02;101689.28;;;29.74;78.30
51687;BME280;37774;52.192;4.584;2023-06-14T12:13:48;101680.75;;;30.73;80.55
51687;BME280;37774;52.192;4.584;2023-06-14T12:16:37;101671.59;;;30.53;76.15
51687;BME280;37774;52.192;4.584;2023-06-14T12:19:26;101677.91;;;31.09;83.63
51687;BME280;37774;52.192;4.584;2023-06-14T12:22:11;101639.38;;;30.98;75.10
51687;BME280;37774;52.192;4.584;2023-06-14T12:24:57;101624.16;;;29.85;78.64
51687;BME280;37774;52.192;4.584;2023-06-14T12:27:42;101681.34;;;30.99;80.16
51687;BME280;37774;52.192;4.584;2023-06-14T12:30:28;101668.69;;;30.90;73.78
51687;BME280;37774;52.192;4.584;2023-06-14T12:33:15;101665.94;;;31.13;75.52
51687;BME280;37774;52.192;4.584;2023-06-14T12:36:00;101692.22;;;30.75;76.65
51687;BME280;37774;52.192;4.584;2023-06-14T12:38:48;101683.44;;;30.84;76.78
51687;BME280;37774;52.192;4.584;2023-06-14T12:41:37;101672.56;;;31.41;77.53
51687;BME280;37774;52.192;4.584;2023-06-14T12:44:25;101694.50;;;29.76;76.92
51687;BME280;37774;52.192;4.584;2023-06-14T12:47:10;101677.13;;;31.29;76.37
51687;BME280;37774;52.192;4.584;2023-06-14T12:49:57;101696.94;;;30.26;76.67
51687;BME280;37774;52.192;4.584;2023-06-14T12:52:42;101697.19;;;29.87;72.97
51687;BME280;37774;52.192;4.584;2023-06-14T12:55:27;101687.34;;;30.23;73.73
51687;BME280;37774;52.192;4.584;2023-06-14T12:58:13;101678.56;;;30.44;79.82
51687;BME280;37774;52.192;4.584;2023-06-14T13:00:58;101665.31;;;31.09;81.61
51687;BME280;37774;52.192;4.584;2023-06-14T13:03:45;101689.28;;;30.44;76.82
51687;BME280;37774;52.192;4.584;2023-06-14T13:06:32;101686.34;;;30.93;77.45
51687;BME280;37774;52.192;4.584;2023-06-14T13:09:18;101667.66;;;31.02;72.92
51687;BME280;37774;52.192;4.584;2023-06-14T13:12:04;101686.00;;;31.41;76.42
51687;BME280;37774;52.192;4.584;2023-06-14T13:14:49;101621.75;;;31.17;73.25
51687;BME280;37774;52.192;4.584;2023-06-14T13:17:35;101614.34;;;30.20;72.90
51687;BME280;37774;52.192;4.584;2023-06-14T13:20:22;101671.75;;;31.29;76.09
51687;BME280;37774;52.192;4.584;2023-06-14T13:23:09;101716.59;;;30.38;76.58
51687;BME280;37774;52.192;4.584;2023-06-14T13:25:55;101692.94;;;30.77;72.39
51687;BME280;37774;52.192;4.584;2023-06-14T13:28:40;101703.53;;;31.01;77.23
51687;BME280;37774;52.192;4.584;2023-06-14T13:31:26;101693.53;;;31.69;76.66
51687;BME280;37774;52.192;4.584;2023-06-14T13:34:11;101692.19;;;31.42;75.32
51687;BME280;37774;52.192;4.584;2023-06-14T13:36:56;101685.09;;;30.97;76.43
51687;BME280;37774;52.192;4.584;2023-06-14T13:39:44;101663.78;;;30.95;77.88
51687;BME280;37774;52.192;4.584;2023-06-14T13:42:30;101706.34;;;30.88;76.55
51687;BME280;37774;52.192;4.584;2023-06-14T13:45:15;101676.25;;;30.85;77.31
51687;BME280;37774;52.192;4.584;2023-06-14T13:48:01;101698.41;;;30.98;80.21
51687;BME280;37774;52.192;4.584;2023-06-14T13:50:46;101699.28;;;30.30;77.58
51687;BME280;37774;52.192;4.584;2023-06-14T13:53:32;101690.44;;;30.06;76.83
51687;BME280;37774;52.192;4.584;2023-06-14T13:56:19;101692.84;;;29.97;78.24
51687;BME280;37774;52.192;4.584;2023-06-14T13:59:06;101636.19;;;29.19;77.56
51687;BME280;37774;52.192;4.584;2023-06-14T14:01:51;101697.38;;;29.61;78.78
51687;BME280;37774;52.192;4.584;2023-06-14T14:04:37;101695.44;;;29.39;74.66
51687;BME280;37774;52.192;4.584;2023-06-14T14:07:23;101700.75;;;30.57;79.78
51687;BME280;37774;52.192;4.584;2023-06-14T14:10:10;101683.09;;;29.96;73.31
51687;BME280;37774;52.192;4.584;2023-06-14T14:12:58;101689.03;;;30.24;78.81
51687;BME280;37774;52.192;4.584;2023-06-14T14:15:44;101673.94;;;30.35;78.52
51687;BME280;37774;52.192;4.584;2023-06-14T14:18:30;101677.69;;;30.55;76.00
51687;BME280;37774;52.192;4.584;2023-06-14T14:21:19;101675.47;;;30.03;72.42
51687;BME280;37774;52.192;4.584;2023-06-14T14:24:06;101652.09;;;30.51;72.65